createdAt,value
2023-02-03T00:02:07.509Z,6.67
2023-02-03T00:04:55.650Z,6.70
2023-02-03T00:07:44.425Z,6.57
2023-02-03T00:10:32.469Z,6.43
2023-02-03T00:13:20.457Z,7.43
2023-02-03T00:16:09.912Z,7.20
2023-02-03T00:18:57.876Z,5.53
2023-02-03T00:21:45.905Z,8.07
2023-02-03T00:24:33.936Z,7.60
2023-02-03T00:27:21.875Z,6.93
2023-02-03T00:30:11.340Z,6.83
2023-02-03T00:33:01.593Z,6.20
2023-02-03T00:35:49.749Z,8.63
2023-02-03T00:38:37.675Z,8.23
2023-02-03T00:41:30.528Z,8.57
2023-02-03T00:44:18.519Z,8.07
2023-02-03T00:47:06.743Z,8.90
2023-02-03T00:49:56.052Z,8.60
2023-02-03T00:52:43.985Z,11.73
2023-02-03T00:55:31.997Z,8.63
2023-02-03T00:58:20.004Z,10.23
2023-02-03T01:01:08.384Z,9.37
2023-02-03T01:03:56.975Z,10.20
2023-02-03T01:06:46.313Z,12.90
2023-02-03T01:09:35.044Z,11.20
2023-02-03T01:12:23.019Z,10.13
2023-02-03T01:15:11.433Z,11.13
2023-02-03T01:17:59.482Z,11.53
2023-02-03T01:20:47.465Z,10.77
2023-02-03T01:23:37.588Z,10.87
2023-02-03T01:26:25.689Z,10.77
2023-02-03T01:29:13.695Z,10.30
2023-02-03T01:32:02.120Z,10.47
2023-02-03T01:34:50.144Z,9.80
2023-02-03T01:37:38.195Z,9.97
2023-02-03T01:40:27.940Z,11.07
2023-02-03T01:43:30.788Z,8.33
2023-02-03T01:46:31.584Z,9.93
2023-02-03T01:49:23.627Z,9.93
2023-02-03T01:52:12.293Z,10.33
2023-02-03T01:55:04.168Z,11.43
2023-02-03T01:57:57.805Z,10.27
2023-02-03T02:00:46.405Z,11.40
2023-02-03T02:03:39.648Z,10.60
2023-02-03T02:06:28.017Z,9.60
2023-02-03T02:09:16.991Z,9.67
2023-02-03T02:12:05.233Z,10.97
2023-02-03T02:14:55.076Z,10.23
2023-02-03T02:18:03.843Z,8.70
2023-02-03T02:21:18.174Z,10.67
2023-02-03T02:25:00.308Z,9.63
2023-02-03T02:28:18.798Z,8.70
2023-02-03T02:31:44.543Z,7.33
2023-02-03T02:34:43.598Z,7.23
2023-02-03T02:37:38.143Z,6.47
2023-02-03T02:40:34.307Z,7.13
2023-02-03T02:43:27.696Z,5.90
2023-02-03T02:46:20.422Z,6.60
2023-02-03T02:49:14.197Z,6.03
2023-02-03T02:52:06.611Z,7.00
2023-02-03T02:54:59.256Z,8.27
2023-02-03T02:57:48.343Z,5.70
2023-02-03T03:00:37.640Z,8.17
2023-02-03T03:03:25.893Z,8.40
2023-02-03T03:06:17.587Z,6.77
2023-02-03T03:09:12.031Z,4.57
2023-02-03T03:12:05.079Z,6.93
2023-02-03T03:14:58.940Z,7.07
2023-02-03T03:17:51.403Z,7.23
2023-02-03T03:20:42.936Z,6.03
2023-02-03T03:23:33.648Z,5.67
2023-02-03T03:26:29.729Z,4.53
2023-02-03T03:29:21.697Z,5.37
2023-02-03T03:32:10.165Z,6.23
2023-02-03T03:34:58.437Z,4.73
2023-02-03T03:37:52.293Z,4.90
2023-02-03T03:40:45.784Z,5.30
2023-02-03T03:43:40.657Z,9.37
2023-02-03T03:46:32.771Z,5.07
2023-02-03T03:49:23.265Z,5.73
2023-02-03T03:52:14.093Z,5.77
2023-02-03T03:55:04.293Z,5.37
2023-02-03T03:57:57.994Z,5.03
2023-02-03T04:00:48.569Z,6.57
2023-02-03T04:03:40.776Z,5.90
2023-02-03T04:06:28.823Z,7.07
2023-02-03T04:09:17.556Z,4.47
2023-02-03T04:12:06.779Z,6.33
2023-02-03T04:14:54.784Z,4.93
2023-02-03T04:17:44.094Z,4.93
2023-02-03T04:20:33.347Z,4.77
2023-02-03T04:23:21.304Z,5.80
2023-02-03T04:26:09.270Z,7.70
2023-02-03T04:28:57.218Z,5.23
2023-02-03T04:31:45.326Z,5.90
2023-02-03T04:34:34.715Z,5.43
2023-02-03T04:37:23.114Z,7.50
2023-02-03T04:40:12.563Z,5.17
2023-02-03T04:43:06.346Z,6.03
2023-02-03T04:45:54.517Z,4.40
2023-02-03T04:48:42.532Z,5.53
2023-02-03T04:51:31.853Z,4.60
2023-02-03T04:54:20.152Z,6.53
2023-02-03T04:57:08.482Z,4.37
2023-02-03T04:59:56.567Z,4.87
2023-02-03T05:02:44.492Z,4.70
2023-02-03T05:05:32.460Z,5.10
2023-02-03T05:08:21.744Z,3.90
2023-02-03T05:11:09.743Z,4.83
2023-02-03T05:13:57.822Z,6.00
2023-02-03T05:16:46.435Z,5.43
2023-02-03T05:19:34.615Z,6.20
2023-02-03T05:22:22.609Z,5.67
2023-02-03T05:25:12.201Z,4.40
2023-02-03T05:28:00.267Z,3.43
2023-02-03T05:30:48.323Z,3.40
2023-02-03T05:33:36.321Z,5.53
2023-02-03T05:36:24.297Z,4.40
2023-02-03T05:39:12.285Z,5.00
2023-02-03T05:42:00.725Z,4.73
2023-02-03T05:44:48.737Z,5.40
2023-02-03T05:47:36.709Z,6.07
2023-02-03T05:50:27.124Z,2.60
2023-02-03T05:53:15.316Z,3.57
2023-02-03T05:56:03.348Z,4.10
2023-02-03T05:58:53.355Z,5.33
2023-02-03T06:01:41.571Z,3.93
2023-02-03T06:04:29.622Z,7.07
2023-02-03T06:07:17.677Z,6.07
2023-02-03T06:10:06.587Z,6.03
2023-02-03T06:12:54.907Z,6.43
2023-02-03T06:15:45.176Z,4.40
2023-02-03T06:18:33.124Z,4.23
2023-02-03T06:21:21.843Z,3.17
2023-02-03T06:24:11.080Z,3.83
2023-02-03T06:26:59.049Z,3.83
2023-02-03T06:29:47.046Z,3.93
2023-02-03T06:32:36.578Z,6.83
2023-02-03T06:35:24.568Z,3.53
2023-02-03T06:38:12.761Z,5.33
2023-02-03T06:41:00.744Z,3.53
2023-02-03T06:43:48.682Z,4.50
2023-02-03T06:46:37.011Z,4.80
2023-02-03T06:49:26.473Z,3.60
2023-02-03T06:52:15.503Z,7.30
2023-02-03T06:55:03.567Z,5.23
2023-02-03T06:57:51.901Z,4.43
2023-02-03T07:00:39.966Z,3.70
2023-02-03T07:03:27.937Z,3.63
2023-02-03T07:06:17.364Z,3.90
2023-02-03T07:09:07.388Z,4.57
2023-02-03T07:11:55.405Z,4.40
2023-02-03T07:14:43.356Z,4.80
2023-02-03T07:17:31.323Z,4.83
2023-02-03T07:20:19.415Z,8.10
2023-02-03T07:23:09.166Z,4.07
2023-02-03T07:26:00.326Z,3.30
2023-02-03T07:28:48.317Z,6.03
2023-02-03T07:31:36.750Z,3.93
2023-02-03T07:34:24.735Z,4.73
2023-02-03T07:37:12.710Z,5.93
2023-02-03T07:40:02.070Z,3.37
2023-02-03T07:42:50.807Z,3.13
2023-02-03T07:45:38.817Z,3.07
2023-02-03T07:48:26.846Z,3.20
2023-02-03T07:51:14.825Z,3.20
2023-02-03T07:54:02.763Z,3.47
2023-02-03T07:56:52.208Z,3.43
2023-02-03T07:59:40.176Z,2.30
2023-02-03T08:02:28.190Z,2.87
2023-02-03T08:05:17.254Z,2.50
2023-02-03T08:08:05.716Z,2.93
2023-02-03T08:10:56.291Z,3.97
2023-02-03T08:13:45.572Z,3.83
2023-02-03T08:16:33.679Z,2.07
2023-02-03T08:19:21.762Z,3.07
2023-02-03T08:22:15.883Z,2.00
2023-02-03T08:25:03.988Z,4.33
2023-02-03T08:27:52.347Z,2.63
2023-02-03T08:30:41.679Z,2.20
2023-02-03T08:33:29.800Z,2.63
2023-02-03T08:36:17.799Z,3.17
2023-02-03T08:39:05.789Z,2.30
2023-02-03T08:41:53.933Z,3.20
2023-02-03T08:44:44.052Z,1.73
2023-02-03T08:47:33.411Z,1.50
2023-02-03T08:50:21.470Z,1.60
2023-02-03T08:53:09.600Z,1.70
2023-02-03T08:55:57.631Z,1.40
2023-02-03T08:58:45.849Z,1.20
2023-02-03T09:01:34.265Z,1.40
2023-02-03T09:04:24.876Z,1.30
2023-02-03T09:07:13.661Z,1.00
2023-02-03T09:10:01.639Z,0.90
2023-02-03T09:12:49.690Z,1.10
2023-02-03T09:15:38.306Z,2.20
2023-02-03T09:18:26.520Z,1.60
2023-02-03T09:21:27.679Z,1.93
2023-02-03T09:24:22.256Z,1.93
2023-02-03T09:27:10.265Z,3.00
2023-02-03T09:29:58.793Z,1.97
2023-02-03T09:32:53.987Z,1.70
2023-02-03T09:35:42.032Z,1.73
2023-02-03T09:38:32.186Z,2.63
2023-02-03T09:41:28.702Z,1.50
2023-02-03T09:44:22.969Z,1.43
2023-02-03T09:47:15.868Z,1.40
2023-02-03T09:50:07.174Z,1.43
2023-02-03T09:52:56.686Z,1.70
2023-02-03T09:55:48.397Z,1.10
2023-02-03T09:58:36.535Z,1.13
2023-02-03T10:01:28.059Z,0.80
2023-02-03T10:04:28.270Z,1.03
2023-02-03T10:07:25.432Z,0.60
2023-02-03T10:10:22.151Z,1.40
2023-02-03T10:13:28.532Z,0.60
2023-02-03T10:16:32.376Z,0.50
2023-02-03T10:19:24.941Z,0.30
2023-02-03T10:22:18.673Z,0.60
2023-02-03T10:25:12.852Z,1.47
2023-02-03T10:28:04.816Z,1.33
2023-02-03T10:30:58.329Z,0.90
2023-02-03T10:33:47.538Z,1.13
2023-02-03T10:36:47.763Z,2.10
2023-02-03T10:39:43.679Z,1.80
2023-02-03T10:42:47.669Z,2.23
2023-02-03T10:45:39.355Z,1.30
2023-02-03T10:48:29.579Z,1.33
2023-02-03T10:51:23.379Z,1.53
2023-02-03T10:54:29.231Z,1.63
2023-02-03T10:57:17.380Z,3.10
2023-02-03T11:00:10.023Z,2.13
2023-02-03T11:03:02.681Z,1.10
2023-02-03T11:06:06.057Z,1.20
2023-02-03T11:08:54.832Z,2.53
2023-02-03T11:11:42.819Z,1.70
2023-02-03T11:14:38.256Z,1.70
2023-02-03T11:17:28.047Z,2.43
2023-02-03T11:20:18.120Z,2.77
2023-02-03T11:23:07.470Z,2.37
2023-02-03T11:25:55.587Z,2.77
2023-02-03T11:28:46.258Z,2.73
2023-02-03T11:31:36.301Z,2.33
2023-02-03T11:34:28.884Z,2.17
2023-02-03T11:37:29.571Z,1.93
2023-02-03T11:40:28.870Z,2.47
2023-02-03T11:43:18.387Z,2.63
2023-02-03T11:46:08.789Z,1.50
2023-02-03T11:49:11.268Z,2.27
2023-02-03T11:52:07.311Z,2.73
2023-02-03T11:55:05.096Z,2.00
2023-02-03T11:58:06.666Z,3.30
2023-02-03T12:01:06.214Z,2.80
2023-02-03T12:04:28.223Z,2.97
2023-02-03T12:07:45.083Z,2.93
2023-02-03T12:10:45.990Z,3.67
2023-02-03T12:13:59.694Z,3.07
2023-02-03T12:17:01.753Z,5.10
2023-02-03T12:20:04.083Z,3.23
2023-02-03T12:23:02.641Z,2.77
2023-02-03T12:26:01.494Z,2.80
2023-02-03T12:28:57.571Z,2.70
2023-02-03T12:31:49.009Z,2.30
2023-02-03T12:34:41.350Z,2.53
2023-02-03T12:37:33.292Z,2.13
2023-02-03T12:40:29.680Z,2.10
2023-02-03T12:43:25.674Z,1.97
2023-02-03T12:46:18.964Z,4.67
2023-02-03T12:49:14.586Z,3.90
2023-02-03T12:52:07.572Z,2.93
2023-02-03T12:55:02.238Z,3.07
2023-02-03T12:57:55.236Z,4.60
2023-02-03T13:00:47.229Z,4.20
2023-02-03T13:03:42.321Z,3.53
2023-02-03T13:06:36.032Z,4.50
2023-02-03T13:09:31.787Z,2.60
2023-02-03T13:12:30.557Z,2.00
2023-02-03T13:15:25.837Z,1.80
2023-02-03T13:18:22.289Z,1.97
2023-02-03T13:21:13.139Z,1.83
2023-02-03T13:24:01.205Z,1.20
2023-02-03T13:27:09.244Z,1.07
2023-02-03T13:30:12.492Z,1.77
2023-02-03T13:33:28.360Z,0.70
2023-02-03T13:36:33.946Z,1.27
2023-02-03T13:39:52.320Z,0.80
2023-02-03T13:42:43.325Z,0.87
2023-02-03T13:45:34.888Z,1.30
2023-02-03T13:48:25.676Z,1.93
2023-02-03T13:51:18.070Z,0.90
2023-02-03T13:54:13.699Z,1.37
2023-02-03T13:57:04.911Z,1.00
2023-02-03T13:59:52.898Z,1.20
2023-02-03T14:02:46.232Z,2.10
2023-02-03T14:05:43.579Z,1.57
2023-02-03T14:08:53.493Z,3.27
2023-02-03T14:11:43.797Z,6.67
2023-02-03T14:15:04.584Z,4.60
2023-02-03T14:18:01.714Z,4.70
2023-02-03T14:21:19.520Z,6.93
2023-02-03T14:24:11.030Z,6.20
2023-02-03T14:27:03.365Z,4.47
2023-02-03T14:30:07.427Z,6.20
2023-02-03T14:32:57.911Z,4.93
2023-02-03T14:35:45.924Z,5.37
2023-02-03T14:38:34.320Z,6.73
2023-02-03T14:41:29.803Z,11.03
2023-02-03T14:44:30.310Z,3.27
2023-02-03T14:47:29.056Z,5.87
2023-02-03T14:50:27.542Z,6.20
2023-02-03T14:53:35.085Z,12.73
2023-02-03T14:56:52.553Z,9.73
2023-02-03T14:59:45.674Z,7.40
2023-02-03T15:02:36.221Z,9.20
2023-02-03T15:05:40.241Z,8.97
2023-02-03T15:08:35.544Z,11.13
2023-02-03T15:11:30.394Z,8.10
2023-02-03T15:14:24.448Z,11.57
2023-02-03T15:17:23.204Z,9.40
2023-02-03T15:20:38.677Z,9.13
2023-02-03T15:23:28.789Z,16.33
2023-02-03T15:26:19.984Z,13.53
2023-02-03T15:29:18.473Z,13.37
2023-02-03T15:32:12.440Z,11.17
2023-02-03T15:35:04.172Z,13.63
2023-02-03T15:37:57.193Z,14.63
2023-02-03T15:40:48.486Z,18.10
2023-02-03T15:43:39.880Z,15.57
2023-02-03T15:46:37.031Z,13.63
2023-02-03T15:49:29.697Z,13.67
2023-02-03T15:52:22.167Z,20.40
2023-02-03T15:55:20.840Z,13.23
2023-02-03T15:58:18.324Z,12.00
2023-02-03T16:01:10.714Z,11.20
2023-02-03T16:04:03.015Z,12.37
2023-02-03T16:07:01.366Z,10.90
2023-02-03T16:09:53.610Z,11.53
2023-02-03T16:12:43.026Z,8.17
2023-02-03T16:15:31.263Z,13.27
2023-02-03T16:18:19.886Z,13.67
2023-02-03T16:21:22.129Z,9.37
2023-02-03T16:24:37.512Z,12.03
2023-02-03T16:27:36.950Z,12.50
2023-02-03T16:30:43.536Z,8.50
2023-02-03T16:33:50.852Z,11.93
2023-02-03T16:36:59.756Z,11.90
2023-02-03T16:40:05.545Z,16.07
2023-02-03T16:43:12.391Z,8.70
2023-02-03T16:46:19.285Z,13.13
2023-02-03T16:49:24.738Z,10.87
2023-02-03T16:52:12.714Z,10.47
2023-02-03T16:55:00.754Z,14.60
2023-02-03T16:57:49.532Z,11.93
2023-02-03T17:00:41.426Z,13.23
2023-02-03T17:03:30.123Z,13.40
2023-02-03T17:06:18.118Z,8.93
2023-02-03T17:09:06.263Z,11.80
2023-02-03T17:11:54.909Z,13.30
2023-02-03T17:14:42.983Z,15.33
2023-02-03T17:17:32.415Z,16.53
2023-02-03T17:20:20.583Z,9.40
2023-02-03T17:23:08.977Z,18.10
2023-02-03T17:25:57.027Z,11.73
2023-02-03T17:28:45.026Z,12.60
2023-02-03T17:31:33.725Z,10.63
2023-02-03T17:34:23.343Z,12.70
2023-02-03T17:37:11.454Z,14.77
2023-02-03T17:55:32.381Z,16.37
2023-02-03T17:58:20.733Z,14.20
2023-02-03T18:01:15.807Z,13.43
2023-02-03T18:04:05.642Z,11.30
2023-02-03T18:06:54.461Z,13.43
2023-02-03T18:09:43.899Z,13.23
2023-02-03T18:12:32.398Z,12.87
2023-02-03T18:15:20.331Z,11.47
2023-02-03T18:18:08.368Z,14.57
2023-02-03T18:20:56.500Z,13.30
2023-02-03T18:23:44.695Z,12.67
2023-02-03T18:26:37.008Z,10.10
2023-02-03T18:29:26.128Z,11.30
2023-02-03T18:32:14.914Z,9.30
2023-02-03T18:35:02.917Z,8.43
2023-02-03T18:37:51.686Z,12.20
2023-02-03T18:40:39.970Z,14.17
2023-02-03T18:43:29.628Z,12.27
2023-02-03T18:46:20.369Z,9.00
2023-02-03T18:49:09.710Z,7.83
2023-02-03T18:51:57.692Z,13.60
2023-02-03T18:54:45.646Z,10.60
2023-02-03T18:57:33.960Z,10.30
2023-02-03T19:00:23.553Z,15.47
2023-02-03T19:03:11.521Z,11.17
2023-02-03T19:05:59.471Z,15.07
2023-02-03T19:08:47.763Z,19.87
2023-02-03T19:11:35.832Z,11.10
2023-02-03T19:14:24.692Z,11.53
2023-02-03T19:17:14.195Z,10.07
2023-02-03T19:20:05.960Z,14.43
2023-02-03T19:22:56.678Z,11.20
2023-02-03T19:25:44.658Z,6.43
2023-02-03T19:28:34.542Z,8.90
2023-02-03T19:31:23.426Z,10.97
2023-02-03T19:34:15.608Z,11.53
2023-02-03T19:37:03.571Z,12.70
2023-02-03T19:39:51.546Z,14.23
2023-02-03T19:42:39.540Z,15.43
2023-02-03T19:45:27.820Z,11.60
2023-02-03T19:48:15.759Z,12.67
2023-02-03T19:51:05.409Z,15.70
2023-02-03T19:53:53.772Z,9.80
2023-02-03T19:56:42.025Z,14.37
2023-02-03T19:59:30.019Z,9.93
2023-02-03T20:02:18.140Z,9.63
2023-02-03T20:05:06.646Z,11.27
2023-02-03T20:07:55.997Z,8.63
2023-02-03T20:10:45.390Z,12.37
2023-02-03T20:13:33.454Z,14.13
2023-02-03T20:16:21.763Z,10.23
2023-02-03T20:19:09.911Z,15.30
2023-02-03T20:21:57.999Z,11.57
2023-02-03T20:24:47.350Z,11.53
2023-02-03T20:27:35.354Z,14.33
2023-02-03T20:30:23.440Z,13.43
2023-02-03T20:33:11.400Z,13.10
2023-02-03T20:35:59.941Z,12.20
2023-02-03T20:38:48.548Z,11.17
2023-02-03T20:41:37.970Z,14.87
2023-02-03T20:44:26.180Z,13.17
2023-02-03T20:47:17.731Z,8.73
2023-02-03T20:50:11.041Z,12.37
2023-02-03T20:52:59.028Z,10.10
2023-02-03T20:55:47.150Z,18.13
2023-02-03T20:58:37.187Z,9.63
2023-02-03T21:01:25.301Z,11.53
2023-02-03T21:04:31.656Z,10.90
2023-02-03T21:07:19.849Z,12.17
2023-02-03T21:10:20.656Z,13.23
2023-02-03T21:13:21.124Z,12.07
2023-02-03T21:16:17.801Z,9.97
2023-02-03T21:19:05.895Z,9.93
2023-02-03T21:21:53.877Z,18.20
2023-02-03T21:24:45.581Z,14.60
2023-02-03T21:27:34.708Z,11.70
2023-02-03T21:30:28.242Z,13.73
2023-02-03T21:33:35.510Z,16.37
2023-02-03T21:36:25.554Z,14.30
2023-02-03T21:39:28.052Z,12.73
2023-02-03T21:42:41.845Z,16.57
2023-02-03T21:45:36.888Z,11.97
2023-02-03T21:48:29.495Z,13.73
2023-02-03T21:51:20.545Z,14.20
2023-02-03T21:54:23.577Z,9.93
2023-02-03T21:57:14.781Z,13.87
2023-02-03T22:00:02.766Z,13.73
2023-02-03T22:02:57.548Z,12.13
2023-02-03T22:05:47.809Z,15.23
2023-02-03T22:08:38.903Z,11.17
2023-02-03T22:11:28.567Z,8.73
2023-02-03T22:14:17.968Z,13.30
2023-02-03T22:17:06.009Z,14.83
2023-02-03T22:19:54.038Z,18.33
2023-02-03T22:22:43.435Z,9.27
2023-02-03T22:25:31.521Z,11.07
2023-02-03T22:28:19.813Z,9.80
2023-02-03T22:31:08.210Z,12.03
2023-02-03T22:33:56.280Z,11.53
2023-02-03T22:36:44.371Z,16.63
2023-02-03T22:39:33.669Z,14.27
2023-02-03T22:42:22.364Z,12.57
2023-02-03T22:45:10.734Z,12.17
2023-02-03T22:48:00.453Z,13.27
2023-02-03T22:50:48.580Z,14.47
2023-02-03T22:53:36.574Z,14.37
2023-02-03T22:56:25.940Z,18.77
2023-02-03T22:59:13.906Z,16.13
2023-02-03T23:02:03.012Z,18.93
2023-02-03T23:04:51.163Z,17.87
2023-02-03T23:07:39.920Z,19.53
2023-02-03T23:10:30.948Z,21.80
2023-02-03T23:13:20.536Z,18.77
2023-02-03T23:16:08.921Z,16.77
2023-02-03T23:18:57.172Z,17.23
2023-02-03T23:21:45.182Z,17.60
2023-02-03T23:24:33.136Z,17.53
2023-02-03T23:27:21.195Z,17.23
2023-02-03T23:30:11.873Z,18.70
2023-02-03T23:32:59.946Z,13.20
2023-02-03T23:35:47.006Z,13.70
2023-02-03T23:38:36.203Z,19.10
2023-02-03T23:41:24.472Z,15.57
2023-02-03T23:44:12.697Z,16.10
2023-02-03T23:47:02.114Z,15.00
2023-02-03T23:49:50.126Z,19.20
2023-02-03T23:52:38.560Z,16.57
2023-02-03T23:55:26.625Z,12.87
2023-02-03T23:58:14.670Z,19.17
